createdAt,value
2022-09-23T00:01:38.550Z,4.33
2022-09-23T00:04:06.531Z,4.07
2022-09-23T00:06:34.397Z,3.03
2022-09-23T00:09:03.700Z,4.20
2022-09-23T00:11:31.868Z,4.73
2022-09-23T00:14:01.298Z,5.10
2022-09-23T00:16:31.144Z,3.77
2022-09-23T00:18:59.427Z,4.63
2022-09-23T00:21:27.810Z,4.70
2022-09-23T00:23:56.009Z,5.63
2022-09-23T00:26:25.682Z,6.10
2022-09-23T00:28:53.519Z,7.17
2022-09-23T00:31:23.238Z,4.50
2022-09-23T00:33:54.211Z,3.90
2022-09-23T00:36:22.023Z,6.67
2022-09-23T00:38:49.945Z,5.13
2022-09-23T00:41:18.471Z,4.67
2022-09-23T00:43:50.165Z,5.20
2022-09-23T00:46:21.819Z,3.93
2022-09-23T00:48:54.935Z,3.40
2022-09-23T00:51:25.933Z,4.53
2022-09-23T00:53:54.267Z,2.70
2022-09-23T00:56:24.634Z,3.20
2022-09-23T00:58:55.187Z,3.00
2022-09-23T01:01:25.782Z,4.57
2022-09-23T01:03:55.534Z,3.50
2022-09-23T01:06:23.511Z,2.57
2022-09-23T01:08:52.025Z,6.20
2022-09-23T01:11:31.378Z,4.07
2022-09-23T01:14:14.146Z,4.63
2022-09-23T01:16:48.081Z,3.73
2022-09-23T01:19:35.789Z,2.93
2022-09-23T01:22:11.784Z,4.60
2022-09-23T01:24:50.780Z,3.97
2022-09-23T01:27:33.834Z,3.00
2022-09-23T01:30:18.582Z,4.47
2022-09-23T01:32:59.244Z,4.07
2022-09-23T01:35:35.327Z,2.67
2022-09-23T01:38:18.746Z,4.03
2022-09-23T01:40:52.900Z,6.00
2022-09-23T01:43:25.436Z,2.10
2022-09-23T01:45:57.937Z,3.80
2022-09-23T01:48:34.141Z,4.57
2022-09-23T01:51:08.168Z,2.87
2022-09-23T01:53:43.622Z,3.73
2022-09-23T01:56:16.354Z,6.97
2022-09-23T01:58:49.536Z,6.30
2022-09-23T02:01:23.913Z,2.23
2022-09-23T02:04:00.948Z,3.57
2022-09-23T02:06:35.352Z,4.27
2022-09-23T02:09:10.791Z,3.63
2022-09-23T02:11:43.017Z,3.37
2022-09-23T02:14:16.789Z,3.10
2022-09-23T02:16:48.474Z,2.70
2022-09-23T02:19:23.405Z,2.80
2022-09-23T02:21:57.605Z,3.40
2022-09-23T02:24:30.608Z,3.57
2022-09-23T02:27:05.015Z,6.23
2022-09-23T02:29:40.058Z,4.10
2022-09-23T02:32:15.790Z,5.20
2022-09-23T02:34:51.623Z,5.67
2022-09-23T02:37:29.829Z,3.30
2022-09-23T02:40:06.434Z,6.50
2022-09-23T02:42:42.368Z,5.83
2022-09-23T02:45:10.479Z,5.17
2022-09-23T02:47:44.024Z,3.50
2022-09-23T02:50:13.831Z,3.10
2022-09-23T02:52:41.753Z,5.60
2022-09-23T02:55:13.064Z,3.57
2022-09-23T02:57:41.035Z,4.07
2022-09-23T03:00:10.191Z,3.40
2022-09-23T03:02:56.018Z,4.17
2022-09-23T03:05:30.218Z,4.90
2022-09-23T03:08:18.987Z,4.23
2022-09-23T03:10:57.746Z,3.77
2022-09-23T03:13:32.277Z,5.63
2022-09-23T03:16:10.483Z,4.97
2022-09-23T03:18:42.921Z,5.70
2022-09-23T03:21:17.431Z,4.90
2022-09-23T03:23:47.538Z,3.87
2022-09-23T03:26:21.403Z,5.17
2022-09-23T03:28:50.859Z,3.30
2022-09-23T03:31:19.218Z,3.20
2022-09-23T03:33:51.957Z,6.67
2022-09-23T03:36:45.235Z,5.27
2022-09-23T03:39:25.101Z,4.17
2022-09-23T03:41:56.774Z,5.20
2022-09-23T03:44:29.208Z,4.63
2022-09-23T03:47:00.034Z,5.97
2022-09-23T03:49:33.361Z,5.67
2022-09-23T03:52:03.178Z,7.03
2022-09-23T03:54:31.045Z,6.80
2022-09-23T03:56:59.339Z,5.50
2022-09-23T03:59:27.463Z,4.50
2022-09-23T04:01:56.041Z,7.73
2022-09-23T04:04:23.965Z,6.07
2022-09-23T04:06:51.791Z,4.83
2022-09-23T04:09:20.895Z,6.17
2022-09-23T04:11:49.788Z,3.67
2022-09-23T04:14:18.667Z,4.80
2022-09-23T04:16:46.967Z,4.47
2022-09-23T04:19:15.948Z,5.00
2022-09-23T04:21:44.868Z,4.10
2022-09-23T04:24:13.845Z,4.33
2022-09-23T04:26:43.319Z,3.43
2022-09-23T04:29:12.111Z,4.37
2022-09-23T04:31:40.129Z,5.63
2022-09-23T04:34:08.112Z,5.10
2022-09-23T04:36:36.261Z,4.63
2022-09-23T04:39:04.602Z,5.23
2022-09-23T04:41:32.810Z,3.63
2022-09-23T04:44:02.553Z,4.93
2022-09-23T04:46:31.139Z,4.47
2022-09-23T04:48:59.052Z,3.83
2022-09-23T04:51:27.908Z,4.10
2022-09-23T04:53:57.044Z,3.90
2022-09-23T04:56:26.683Z,4.53
2022-09-23T04:58:57.190Z,8.50
2022-09-23T05:01:28.425Z,2.90
2022-09-23T05:04:02.376Z,4.40
2022-09-23T05:06:31.448Z,6.67
2022-09-23T05:09:00.317Z,6.00
2022-09-23T05:11:30.953Z,3.97
2022-09-23T05:13:59.457Z,4.60
2022-09-23T05:16:28.777Z,4.43
2022-09-23T05:18:57.497Z,5.93
2022-09-23T05:21:29.050Z,3.53
2022-09-23T05:24:00.324Z,5.77
2022-09-23T05:26:30.958Z,4.40
2022-09-23T05:28:59.618Z,4.60
2022-09-23T05:31:30.807Z,4.23
2022-09-23T05:34:00.597Z,6.63
2022-09-23T05:36:33.224Z,3.70
2022-09-23T05:39:04.844Z,5.10
2022-09-23T05:41:33.114Z,7.07
2022-09-23T05:44:01.191Z,5.23
2022-09-23T05:46:35.641Z,6.87
2022-09-23T05:49:05.596Z,8.90
2022-09-23T05:51:35.426Z,4.97
2022-09-23T05:54:04.071Z,6.83
2022-09-23T05:56:33.770Z,5.47
2022-09-23T05:59:03.313Z,4.83
2022-09-23T06:01:35.354Z,4.43
2022-09-23T06:04:06.010Z,8.27
2022-09-23T06:06:48.270Z,5.50
2022-09-23T06:09:24.665Z,6.70
2022-09-23T06:11:55.314Z,5.00
2022-09-23T06:14:23.791Z,4.33
2022-09-23T06:16:53.462Z,5.17
2022-09-23T06:19:21.629Z,4.03
2022-09-23T06:21:59.288Z,6.33
2022-09-23T06:24:31.248Z,5.97
2022-09-23T06:27:01.139Z,5.73
2022-09-23T06:29:30.965Z,4.00
2022-09-23T06:32:05.220Z,7.57
2022-09-23T06:35:02.250Z,11.10
2022-09-23T06:37:32.300Z,13.57
2022-09-23T06:40:00.845Z,10.37
2022-09-23T06:42:29.318Z,5.17
2022-09-23T06:45:03.859Z,5.47
2022-09-23T06:47:37.854Z,5.73
2022-09-23T06:50:07.088Z,5.23
2022-09-23T06:52:35.958Z,7.93
2022-09-23T06:55:13.442Z,5.67
2022-09-23T06:57:45.337Z,6.13
2022-09-23T07:00:14.887Z,3.40
2022-09-23T07:02:44.759Z,5.53
2022-09-23T07:05:16.036Z,4.10
2022-09-23T07:08:23.998Z,4.53
2022-09-23T07:10:55.398Z,5.03
2022-09-23T07:13:23.849Z,7.03
2022-09-23T07:15:56.323Z,4.33
2022-09-23T07:18:35.565Z,2.90
2022-09-23T07:21:14.455Z,7.07
2022-09-23T07:23:53.706Z,4.83
2022-09-23T07:26:34.350Z,9.23
2022-09-23T07:29:09.970Z,3.97
2022-09-23T07:31:41.943Z,4.57
2022-09-23T07:34:12.277Z,4.97
2022-09-23T07:36:41.812Z,5.57
2022-09-23T07:39:11.935Z,4.80
2022-09-23T07:41:41.865Z,4.43
2022-09-23T07:44:12.122Z,3.37
2022-09-23T07:46:40.483Z,3.07
2022-09-23T07:49:12.098Z,5.27
2022-09-23T07:51:46.017Z,4.47
2022-09-23T07:54:17.274Z,4.17
2022-09-23T07:56:50.352Z,5.70
2022-09-23T07:59:19.697Z,3.03
2022-09-23T08:01:50.629Z,8.40
2022-09-23T08:04:21.162Z,4.83
2022-09-23T08:06:58.065Z,3.70
2022-09-23T08:09:37.969Z,4.03
2022-09-23T08:12:23.533Z,7.97
2022-09-23T08:15:20.363Z,3.63
2022-09-23T08:17:50.247Z,5.13
2022-09-23T08:20:38.390Z,4.43
2022-09-23T08:23:35.444Z,3.23
2022-09-23T08:26:05.263Z,3.57
2022-09-23T08:32:02.170Z,6.57
2022-09-23T08:34:31.626Z,4.47
2022-09-23T08:36:59.678Z,4.60
2022-09-23T08:39:28.955Z,4.90
2022-09-23T08:42:08.511Z,4.10
2022-09-23T08:44:48.297Z,3.13
2022-09-23T08:47:21.316Z,3.70
2022-09-23T08:49:59.080Z,2.90
2022-09-23T08:52:35.796Z,3.47
2022-09-23T08:55:06.099Z,6.33
2022-09-23T08:57:43.005Z,8.53
2022-09-23T09:00:17.539Z,4.80
2022-09-23T09:02:45.926Z,3.77
2022-09-23T09:05:18.290Z,3.93
2022-09-23T09:07:46.656Z,3.80
2022-09-23T09:10:22.407Z,5.27
2022-09-23T09:12:53.571Z,4.07
2022-09-23T09:15:24.805Z,5.03
2022-09-23T09:18:02.515Z,4.53
2022-09-23T09:20:39.495Z,6.63
2022-09-23T09:23:41.632Z,5.97
2022-09-23T09:35:56.025Z,3.57
2022-09-23T09:38:24.359Z,5.70
2022-09-23T09:40:52.251Z,4.87
2022-09-23T09:43:23.203Z,5.23
2022-09-23T09:46:06.695Z,6.67
2022-09-23T09:48:39.818Z,3.50
2022-09-23T09:51:21.421Z,3.37
2022-09-23T09:53:52.060Z,5.07
2022-09-23T09:56:26.785Z,4.37
2022-09-23T09:59:01.049Z,4.43
2022-09-23T10:01:30.825Z,4.13
2022-09-23T10:04:00.045Z,5.27
2022-09-23T10:06:29.873Z,5.87
2022-09-23T10:09:10.858Z,7.23
2022-09-23T10:11:39.475Z,5.80
2022-09-23T10:14:13.880Z,4.77
2022-09-23T10:16:42.625Z,5.57
2022-09-23T10:19:24.360Z,8.30
2022-09-23T10:21:57.086Z,7.27
2022-09-23T10:24:29.860Z,9.33
2022-09-23T10:27:02.094Z,6.83
2022-09-23T10:29:34.021Z,5.90
2022-09-23T10:32:20.256Z,5.83
2022-09-23T10:34:52.324Z,7.17
2022-09-23T10:37:31.756Z,8.57
2022-09-23T10:40:18.066Z,10.03
2022-09-23T10:43:19.096Z,6.67
2022-09-23T10:46:07.334Z,6.90
2022-09-23T10:48:48.167Z,5.37
2022-09-23T10:51:26.168Z,4.40
2022-09-23T10:54:03.252Z,5.77
2022-09-23T10:56:37.051Z,5.77
2022-09-23T10:59:19.832Z,7.87
2022-09-23T11:02:02.462Z,8.70
2022-09-23T11:04:52.775Z,6.87
2022-09-23T11:07:31.799Z,5.60
2022-09-23T11:10:41.978Z,5.10
2022-09-23T11:13:16.655Z,5.33
2022-09-23T11:15:55.789Z,6.00
2022-09-23T11:18:42.498Z,4.63
2022-09-23T11:21:44.147Z,7.27
2022-09-23T11:24:52.051Z,7.33
2022-09-23T11:27:32.980Z,5.60
2022-09-23T11:30:09.710Z,4.47
2022-09-23T11:32:55.430Z,9.47
2022-09-23T11:35:29.087Z,6.57
2022-09-23T11:38:02.752Z,10.37
2022-09-23T11:40:33.090Z,9.97
2022-09-23T11:43:06.326Z,6.70
2022-09-23T11:45:41.000Z,9.33
2022-09-23T11:48:15.505Z,6.83
2022-09-23T11:50:51.142Z,8.50
2022-09-23T11:53:26.678Z,11.17
2022-09-23T11:56:01.663Z,6.83
2022-09-23T11:58:32.666Z,8.37
2022-09-23T12:01:04.274Z,8.53
2022-09-23T12:03:45.174Z,9.40
2022-09-23T12:06:20.858Z,6.63
2022-09-23T12:08:54.327Z,5.53
2022-09-23T12:11:30.072Z,6.03
2022-09-23T12:14:10.094Z,4.87
2022-09-23T12:17:02.731Z,10.20
2022-09-23T12:19:56.194Z,9.40
2022-09-23T12:22:39.887Z,7.63
2022-09-23T12:25:28.867Z,6.23
2022-09-23T12:28:02.572Z,5.63
2022-09-23T12:30:33.839Z,4.83
2022-09-23T12:33:11.758Z,7.60
2022-09-23T12:35:42.981Z,7.73
2022-09-23T12:38:20.112Z,6.80
2022-09-23T12:40:48.815Z,5.63
2022-09-23T12:43:18.747Z,7.33
2022-09-23T12:45:48.088Z,4.73
2022-09-23T12:48:46.883Z,4.93
2022-09-23T12:51:18.435Z,7.47
2022-09-23T12:54:16.231Z,7.17
2022-09-23T12:57:03.095Z,4.77
2022-09-23T12:59:33.010Z,4.60
2022-09-23T13:02:25.825Z,4.67
2022-09-23T13:05:18.103Z,6.03
2022-09-23T13:07:49.213Z,7.57
2022-09-23T13:10:23.741Z,3.17
2022-09-23T13:12:53.783Z,8.40
2022-09-23T13:15:29.877Z,3.60
2022-09-23T13:18:46.022Z,5.93
2022-09-23T13:21:20.080Z,6.13
2022-09-23T13:24:18.388Z,5.00
2022-09-23T13:26:47.603Z,6.40
2022-09-23T13:29:21.379Z,5.67
2022-09-23T13:31:49.578Z,5.00
2022-09-23T13:34:22.396Z,4.37
2022-09-23T13:36:50.441Z,5.97
2022-09-23T13:39:24.521Z,7.73
2022-09-23T13:41:54.765Z,5.40
2022-09-23T13:44:24.095Z,4.57
2022-09-23T13:46:55.196Z,6.53
2022-09-23T13:49:25.569Z,5.63
2022-09-23T13:51:54.329Z,5.43
2022-09-23T13:54:29.338Z,4.73
2022-09-23T13:56:57.421Z,6.23
2022-09-23T13:59:29.337Z,7.20
2022-09-23T14:02:11.754Z,6.37
2022-09-23T14:04:40.064Z,3.97
2022-09-23T14:07:13.815Z,4.10
2022-09-23T14:09:44.019Z,3.83
2022-09-23T14:12:13.142Z,4.97
2022-09-23T14:14:54.881Z,4.73
2022-09-23T14:17:24.238Z,6.57
2022-09-23T14:19:52.675Z,4.67
2022-09-23T14:22:25.696Z,6.40
2022-09-23T14:24:56.119Z,3.83
2022-09-23T14:27:29.002Z,9.53
2022-09-23T14:30:00.011Z,5.57
2022-09-23T14:32:33.209Z,3.40
2022-09-23T14:35:22.334Z,5.13
2022-09-23T14:38:14.058Z,5.63
2022-09-23T14:40:52.424Z,5.60
2022-09-23T14:43:24.922Z,10.27
2022-09-23T14:45:57.209Z,4.47
2022-09-23T14:48:28.629Z,4.13
2022-09-23T14:50:58.991Z,3.67
2022-09-23T14:53:40.479Z,5.43
2022-09-23T14:56:14.893Z,3.57
2022-09-23T14:58:51.007Z,5.57
2022-09-23T15:01:38.671Z,4.40
2022-09-23T15:04:32.381Z,3.10
2022-09-23T15:07:07.624Z,4.43
2022-09-23T15:09:40.467Z,3.93
2022-09-23T15:12:13.844Z,5.53
2022-09-23T15:14:46.482Z,4.07
2022-09-23T15:17:32.585Z,4.37
2022-09-23T15:20:03.928Z,3.13
2022-09-23T15:22:31.970Z,5.00
2022-09-23T15:25:16.543Z,4.93
2022-09-23T15:27:57.296Z,3.93
2022-09-23T15:30:25.734Z,5.13
2022-09-23T15:32:55.050Z,5.37
2022-09-23T15:35:26.722Z,4.70
2022-09-23T15:38:00.385Z,3.53
2022-09-23T15:40:30.574Z,3.03
2022-09-23T15:43:00.701Z,5.23
2022-09-23T15:45:33.581Z,6.00
2022-09-23T15:48:08.601Z,4.50
2022-09-23T15:50:37.797Z,5.60
2022-09-23T15:53:08.346Z,3.10
2022-09-23T15:55:36.717Z,5.40
2022-09-23T15:58:05.868Z,4.83
2022-09-23T16:00:34.783Z,4.30
2022-09-23T16:03:06.958Z,4.70
2022-09-23T16:05:37.904Z,8.47
2022-09-23T16:08:09.285Z,2.63
2022-09-23T16:10:38.428Z,6.50
2022-09-23T16:13:09.103Z,8.57
2022-09-23T16:15:39.101Z,2.87
2022-09-23T16:18:09.385Z,3.87
2022-09-23T16:20:39.171Z,3.03
2022-09-23T16:23:12.140Z,5.33
2022-09-23T16:25:40.291Z,3.70
2022-09-23T16:28:08.357Z,2.93
2022-09-23T16:30:39.293Z,4.33
2022-09-23T16:33:08.932Z,3.10
2022-09-23T16:35:39.056Z,12.13
2022-09-23T16:38:10.396Z,3.57
2022-09-23T16:44:41.448Z,3.23
2022-09-23T16:47:10.120Z,5.90
2022-09-23T16:49:39.618Z,3.57
2022-09-23T16:52:11.667Z,3.57
2022-09-23T16:54:39.999Z,4.27
2022-09-23T16:57:10.269Z,6.00
2022-09-23T17:00:02.497Z,2.67
2022-09-23T17:02:48.112Z,4.50
2022-09-23T17:05:19.440Z,4.33
2022-09-23T17:07:47.628Z,2.37
2022-09-23T17:10:18.946Z,4.30
2022-09-23T17:12:47.826Z,3.20
2022-09-23T17:15:15.947Z,4.30
2022-09-23T17:17:44.001Z,4.50
2022-09-23T17:20:13.156Z,7.33
2022-09-23T17:22:44.017Z,4.13
2022-09-23T17:25:12.083Z,5.03
2022-09-23T17:27:40.367Z,4.33
2022-09-23T17:30:09.889Z,4.70
2022-09-23T17:32:38.222Z,4.67
2022-09-23T17:35:07.047Z,3.53
2022-09-23T17:37:35.171Z,3.83
2022-09-23T17:40:05.807Z,4.80
2022-09-23T17:42:34.415Z,4.13
2022-09-23T17:45:02.266Z,4.03
2022-09-23T17:47:31.635Z,6.30
2022-09-23T17:50:01.553Z,5.67
2022-09-23T17:52:29.467Z,3.90
2022-09-23T17:54:57.371Z,5.50
2022-09-23T17:57:26.697Z,5.40
2022-09-23T17:59:56.006Z,6.43
2022-09-23T18:02:23.956Z,5.30
2022-09-23T18:04:51.921Z,5.57
2022-09-23T18:07:19.673Z,4.00
2022-09-23T18:09:47.483Z,4.00
2022-09-23T18:12:16.898Z,5.10
2022-09-23T18:14:47.730Z,8.73
2022-09-23T18:17:16.234Z,8.67
2022-09-23T18:19:46.381Z,5.20
2022-09-23T18:22:14.285Z,3.97
2022-09-23T18:24:42.688Z,3.97
2022-09-23T18:27:11.050Z,4.87
2022-09-23T18:29:38.927Z,4.43
2022-09-23T18:32:12.154Z,4.57
2022-09-23T18:34:41.768Z,6.07
2022-09-23T18:37:15.725Z,4.77
2022-09-23T18:39:44.909Z,7.00
2022-09-23T18:42:14.151Z,6.70
2022-09-23T18:44:42.156Z,6.33
2022-09-23T18:47:31.275Z,8.07
2022-09-23T18:50:16.766Z,8.27
2022-09-23T18:52:44.602Z,8.27
2022-09-23T18:55:12.876Z,6.03
2022-09-23T18:57:41.174Z,5.27
2022-09-23T19:00:10.582Z,6.37
2022-09-23T19:02:39.985Z,4.33
2022-09-23T19:05:08.835Z,6.33
2022-09-23T19:07:37.005Z,6.13
2022-09-23T19:10:06.402Z,9.37
2022-09-23T19:12:34.715Z,4.83
2022-09-23T19:15:02.714Z,4.10
2022-09-23T19:17:30.663Z,5.77
2022-09-23T19:19:59.973Z,10.33
2022-09-23T19:22:29.785Z,8.23
2022-09-23T19:24:57.625Z,5.80
2022-09-23T19:27:25.718Z,8.63
2022-09-23T19:29:53.835Z,6.93
2022-09-23T19:32:25.977Z,7.90
2022-09-23T19:34:54.452Z,4.10
2022-09-23T19:37:23.742Z,6.80
2022-09-23T19:39:51.729Z,8.77
2022-09-23T19:42:19.610Z,7.27
2022-09-23T19:44:47.429Z,3.87
2022-09-23T19:47:17.475Z,3.93
2022-09-23T19:49:45.725Z,5.60
2022-09-23T19:52:13.647Z,6.03
2022-09-23T19:54:43.002Z,5.97
2022-09-23T19:57:11.238Z,6.33
2022-09-23T19:59:39.196Z,5.40
2022-09-23T20:02:07.459Z,9.67
2022-09-23T20:04:35.456Z,7.53
2022-09-23T20:07:04.480Z,8.60
2022-09-23T20:09:32.352Z,5.63
2022-09-23T20:12:02.421Z,9.87
2022-09-23T20:14:31.352Z,5.60
2022-09-23T20:17:00.225Z,5.43
2022-09-23T20:19:28.139Z,6.67
2022-09-23T20:22:09.956Z,8.80
2022-09-23T20:24:37.932Z,10.43
2022-09-23T20:27:08.804Z,8.37
2022-09-23T20:29:36.896Z,7.10
2022-09-23T20:32:05.403Z,7.33
2022-09-23T20:34:33.752Z,8.60
2022-09-23T20:37:01.770Z,6.50
2022-09-23T20:39:29.941Z,5.60
2022-09-23T20:41:58.358Z,5.20
2022-09-23T20:44:27.670Z,6.97
2022-09-23T20:46:57.932Z,6.33
2022-09-23T20:49:26.063Z,8.07
2022-09-23T20:51:54.066Z,10.03
2022-09-23T20:54:23.281Z,11.00
2022-09-23T20:56:51.215Z,9.20
2022-09-23T20:59:22.495Z,7.37
2022-09-23T21:01:55.705Z,5.97
2022-09-23T21:04:23.927Z,6.57
2022-09-23T21:06:52.427Z,12.37
2022-09-23T21:09:21.609Z,6.27
2022-09-23T21:11:49.827Z,8.77
2022-09-23T21:14:17.807Z,7.37
2022-09-23T21:16:46.032Z,5.10
2022-09-23T21:19:15.336Z,6.77
2022-09-23T21:21:43.995Z,6.90
2022-09-23T21:24:40.071Z,6.13
2022-09-23T21:26:59.920Z,6.10
2022-09-23T21:29:27.841Z,6.07
2022-09-23T21:31:55.861Z,4.83
2022-09-23T21:34:28.158Z,5.47
2022-09-23T21:36:57.429Z,5.30
2022-09-23T21:39:26.600Z,8.10
2022-09-23T21:41:54.780Z,5.50
2022-09-23T21:44:22.924Z,5.10
2022-09-23T21:46:50.918Z,6.83
2022-09-23T21:49:18.876Z,6.13
2022-09-23T21:51:48.968Z,5.37
2022-09-23T21:54:17.853Z,6.47
2022-09-23T21:56:46.031Z,7.20
2022-09-23T21:59:14.009Z,7.97
2022-09-23T22:01:44.988Z,8.47
2022-09-23T22:04:17.009Z,7.67
2022-09-23T22:06:46.096Z,6.73
2022-09-23T22:09:17.480Z,7.00
2022-09-23T22:12:03.429Z,6.00
2022-09-23T22:14:31.732Z,5.40
2022-09-23T22:17:02.376Z,8.10
2022-09-23T22:19:35.202Z,7.57
2022-09-23T22:22:07.491Z,7.63
2022-09-23T22:24:36.760Z,6.80
2022-09-23T22:27:04.752Z,9.13
2022-09-23T22:29:49.880Z,7.23
2022-09-23T22:32:35.120Z,11.40
2022-09-23T22:35:03.200Z,6.70
2022-09-23T22:37:34.113Z,7.33
2022-09-23T22:40:04.834Z,7.60
2022-09-23T22:42:32.926Z,10.63
2022-09-23T22:45:00.893Z,7.83
2022-09-23T22:47:28.663Z,7.00
2022-09-23T22:49:57.114Z,8.17
2022-09-23T22:52:25.279Z,8.00
2022-09-23T22:54:53.482Z,9.43
2022-09-23T22:57:22.670Z,11.30
2022-09-23T22:59:50.549Z,8.50
2022-09-23T23:02:19.787Z,9.07
2022-09-23T23:04:48.163Z,12.60
2022-09-23T23:07:20.350Z,14.03
2022-09-23T23:09:48.310Z,14.93
2022-09-23T23:12:16.793Z,17.37
2022-09-23T23:14:46.251Z,16.07
2022-09-23T23:17:14.187Z,14.83
2022-09-23T23:19:42.137Z,17.97
2022-09-23T23:22:10.220Z,18.40
2022-09-23T23:24:38.090Z,17.77
2022-09-23T23:27:06.030Z,17.30
2022-09-23T23:29:33.976Z,17.47
2022-09-23T23:32:03.815Z,15.30
2022-09-23T23:34:31.644Z,16.77
2022-09-23T23:37:00.447Z,15.37
2022-09-23T23:39:28.463Z,14.57
2022-09-23T23:41:58.288Z,12.43
2022-09-23T23:44:27.751Z,11.57
2022-09-23T23:46:55.863Z,13.37
2022-09-23T23:49:25.601Z,17.37
2022-09-23T23:51:53.778Z,12.60
2022-09-23T23:54:21.537Z,13.63
2022-09-23T23:56:49.439Z,15.10
2022-09-23T23:59:19.955Z,10.00
